Latest Weather Observations for Brisbane Airport

IDQ60801

Issued at 9:32 pm EST Tuesday 28 April 2015 (issued every 30 minutes, with the page automatically refreshed every 10 minutes)

About weather observations | Map of weather stations | Latest weather observations for QLD | Other Formats
Station Details ID: 040842 Name: BRISBANE AERO Lat: -27.39 Lon: 153.13 Height: 4.51 m
Data from the previous 72 hours. | See also: Recent months at Brisbane Airport
Date/Time
EST
Temp
°C
App
Temp
°C
Dew
Point
Rel
Hum
%
Delta-T
°C
Wind Press
QNH
hPa
Press
MSL
hPa
Rain
since 9 am
mm
Dir
 
Spd
km/h
Gust
km/h
Spd
kts
Gust
kts
28/09:00pm 19.7 17.6 11.3 58 4.6 SE 13 24 7 13 1023.2 1023.2 0.0
28/08:30pm 19.8 17.7 11.2 57 4.7 SE 13 20 7 11 1022.9 - 0.0
28/08:00pm 20.0 17.5 11.2 57 4.8 SSE 15 24 8 13 1022.7 - 0.0
28/07:30pm 20.2 18.5 11.3 56 4.9 SSE 11 17 6 9 1022.4 - 0.0
28/07:00pm 20.5 17.8 11.8 57 4.8 SSE 17 28 9 15 1022.0 - 0.0
28/06:30pm 20.9 19.1 12.1 57 4.9 SSE 13 22 7 12 1021.6 - 0.0
28/06:00pm 21.0 19.8 12.7 59 4.7 SE 11 17 6 9 1021.2 1021.2 0.0
28/05:30pm 21.6 19.9 12.6 56 5.1 SE 13 19 7 10 1020.9 - 0.0
28/05:00pm 21.9 19.8 12.5 55 5.3 SE 15 24 8 13 1020.5 - 0.0
28/04:30pm 22.3 19.6 11.7 51 5.9 SE 17 26 9 14 1020.3 - 0.0
28/04:00pm 22.6 19.9 11.7 50 6.1 ESE 17 26 9 14 1020.2 - 0.0
28/03:30pm 22.8 19.9 12.8 53 5.7 ESE 20 32 11 17 1020.1 - 0.0
28/03:00pm 22.9 19.4 12.1 50 6.1 ESE 22 35 12 19 1020.1 1020.1 0.0
28/02:30pm 23.2 20.2 12.5 51 6.1 ESE 20 32 11 17 1020.1 - 0.0
28/02:00pm 23.2 20.1 11.6 48 6.5 ESE 19 32 10 17 1020.1 - 0.0
28/01:30pm 23.5 20.4 12.2 49 6.4 ESE 20 30 11 16 1020.3 - 0.0
28/01:00pm 23.3 20.3 12.4 50 6.2 E 20 32 11 17 1020.5 - 0.0
28/12:30pm 23.7 20.9 11.4 46 6.9 E 17 30 9 16 1020.9 - 0.0
28/12:00pm 23.8 20.4 11.3 45 7.0 ESE 20 32 11 17 1021.2 1021.2 0.0
28/11:30am 23.4 19.8 10.5 44 7.1 ESE 20 32 11 17 1021.7 - 0.0
28/11:00am 23.7 21.0 11.6 46 6.8 SE 17 24 9 13 1022.0 - 0.0
28/10:30am 22.4 20.4 11.4 49 6.1 SSE 13 19 7 10 1022.4 - 0.0
28/10:00am 22.3 19.3 12.0 52 5.8 SSE 19 24 10 13 1022.6 - 0.0
28/09:30am 20.9 18.6 11.9 56 5.0 S 15 22 8 12 1022.7 - 0.0
28/09:00am 19.9 17.0 11.1 57 4.8 SSW 17 22 9 12 1022.6 1022.6 0.0
28/08:30am 18.8 15.5 11.0 60 4.2 SSW 19 22 10 12 1022.3 - 0.0
28/08:00am 17.6 15.2 11.3 66 3.4 SSW 15 20 8 11 1022.0 - 0.0
28/07:30am 16.2 13.7 11.2 72 2.7 SSW 15 19 8 10 1021.8 - 0.0
28/07:00am 14.8 12.2 10.8 77 2.1 SSW 15 19 8 10 1021.4 - 0.0
28/06:30am 13.2 12.1 10.5 84 1.4 SSW 7 11 4 6 1020.9 - 0.0
28/06:00am 14.3 12.5 10.7 79 1.9 SSW 11 13 6 7 1020.6 1020.6 0.0
28/05:30am 15.1 12.9 10.7 75 2.3 SSW 13 19 7 10 1020.2 - 0.0
28/05:00am 13.8 12.1 11.3 85 1.3 SSW 11 13 6 7 1019.8 - 0.0
28/04:30am 14.2 12.2 11.6 84 1.4 SSW 13 15 7 8 1019.4 - 0.0
28/04:00am 15.1 12.9 12.0 82 1.7 SSW 15 17 8 9 1019.3 - 0.0
28/03:30am 15.9 14.2 12.6 81 1.8 SSW 13 19 7 10 1019.0 - 0.0
28/03:00am 16.7 14.3 12.7 77 2.2 SSW 17 24 9 13 1018.9 1018.9 0.0
28/02:30am 16.6 15.1 13.2 80 1.9 SSW 13 17 7 9 1019.2 - 0.0
28/02:00am 16.2 15.2 13.3 83 1.6 SSW 11 15 6 8 1019.3 - 0.0
28/01:30am 16.0 15.3 13.1 83 1.6 SSW 9 11 5 6 1019.4 - 0.0
28/01:00am 16.0 15.1 12.7 81 1.8 SSW 9 11 5 6 1019.3 - 0.0
28/12:30am 15.0 14.2 12.8 87 1.2 SW 9 9 5 5 1019.4 - 0.0
 
Date/Time
EST
Temp
°C
App
Temp
°C
Dew
Point
Rel
Hum
%
Delta-T
°C
Wind Press
QNH
hPa
Press
MSL
hPa
Rain
since 9 am
mm
Dir
 
Spd
km/h
Gust
km/h
Spd
kts
Gust
kts
27/11:30pm 15.9 15.6 13.2 84 1.5 SW 7 9 4 5 1019.6 - 0.0
27/11:00pm 16.6 16.0 13.4 81 1.8 S 9 9 5 5 1019.6 - 0.0
27/10:30pm 16.7 16.0 13.1 79 2.0 S 9 11 5 6 1019.5 - 0.0
27/10:00pm 16.4 15.0 13.4 82 1.7 SSW 13 15 7 8 1019.6 - 0.0
27/09:30pm 16.4 15.9 13.7 84 1.5 WSW 9 11 5 6 1019.5 - 0.0
27/09:00pm 16.8 18.2 14.5 86 1.3 CALM 0 0 0 0 1019.4 1019.4 0.0
27/08:30pm 18.2 18.5 14.4 78 2.2 E 6 7 3 4 1019.2 - 0.0
27/08:00pm 18.4 18.5 14.4 77 2.3 E 7 9 4 5 1018.9 - 0.0
27/07:30pm 19.7 19.6 13.8 69 3.4 E 7 9 4 5 1018.7 - 0.0
27/07:00pm 19.7 19.3 14.0 69 3.3 E 9 11 5 6 1018.2 - 0.0
27/06:30pm 19.6 19.4 13.6 68 3.4 ENE 7 9 4 5 1017.7 - 0.0
27/06:00pm 20.3 19.4 12.7 61 4.3 ENE 9 9 5 5 1017.4 1017.4 0.0
27/05:30pm 20.6 19.5 11.8 57 4.9 ENE 9 11 5 6 1017.0 - 0.0
27/05:00pm 21.5 19.9 11.6 53 5.5 NE 11 13 6 7 1016.7 - 0.0
27/04:30pm 22.0 20.2 10.9 49 6.1 ENE 11 15 6 8 1016.5 - 0.0
27/04:00pm 22.5 20.1 10.2 45 6.7 E 13 19 7 10 1016.2 - 0.0
27/03:30pm 23.1 20.1 10.6 45 6.9 NE 17 20 9 11 1016.0 - 0.0
27/03:00pm 22.7 20.0 10.3 45 6.8 ENE 15 19 8 10 1015.8 1015.8 0.0
27/02:30pm 22.9 20.2 10.5 45 6.8 E 15 20 8 11 1015.8 - 0.0
27/02:00pm 23.2 21.6 8.8 39 7.7 SSE 7 15 4 8 1015.8 - 0.0
27/01:30pm 23.6 21.1 9.8 41 7.5 WSW 13 20 7 11 1016.0 - 0.0
27/01:00pm 23.0 20.6 8.7 40 7.6 SW 11 19 6 10 1016.1 - 0.0
27/12:30pm 23.2 21.3 9.0 40 7.6 S 9 13 5 7 1016.5 - 0.0
27/12:00pm 22.8 20.0 8.4 39 7.6 S 13 20 7 11 1016.8 1016.8 0.0
27/11:30am 22.3 18.7 8.2 40 7.4 SSW 17 28 9 15 1017.3 - 0.0
27/11:00am 21.6 17.5 7.7 40 7.2 SSW 19 24 10 13 1017.6 - 0.0
27/10:30am 20.9 16.1 7.2 41 7.0 SSW 22 30 12 16 1017.9 - 0.0
27/10:00am 20.9 15.6 6.9 40 7.1 SSW 24 32 13 17 1018.1 - 0.0
27/09:30am 20.1 15.6 7.1 43 6.6 SSW 20 28 11 15 1018.2 - 0.0
27/09:00am 19.0 15.1 7.1 46 6.0 SW 17 24 9 13 1018.1 1018.1 0.0
27/08:30am 17.7 14.3 7.8 52 5.0 SW 15 19 8 10 1018.0 - 0.0
27/08:00am 15.8 13.4 8.5 62 3.7 SSW 11 15 6 8 1017.8 - 0.0
27/07:30am 14.2 11.8 8.6 69 2.8 SSW 11 15 6 8 1017.5 - 0.0
27/07:00am 12.7 10.2 8.0 73 2.3 SSW 11 15 6 8 1017.4 - 0.0
27/06:30am 11.8 9.4 7.2 73 2.2 SSW 9 11 5 6 1016.9 - 0.0
27/06:00am 11.0 8.6 7.0 76 1.9 WSW 9 13 5 7 1016.8 1016.8 0.0
27/05:30am 11.4 9.0 7.2 75 2.0 WSW 9 11 5 6 1016.3 - 0.0
27/05:00am 11.1 8.7 7.1 76 1.9 WSW 9 11 5 6 1016.0 - 0.0
27/04:30am 10.8 8.8 7.2 78 1.7 W 7 9 4 5 1015.7 - 0.0
27/04:00am 11.7 9.2 6.6 71 2.4 SW 9 11 5 6 1015.4 - 0.0
27/03:30am 11.2 8.8 6.8 74 2.1 SW 9 11 5 6 1015.3 - 0.0
27/03:00am 11.9 9.4 6.4 69 2.6 SSW 9 11 5 6 1015.1 1015.1 0.0
27/02:30am 12.3 9.7 6.1 66 2.9 WSW 9 11 5 6 1015.0 - 0.0
27/02:00am 13.0 10.9 6.5 64 3.1 WSW 7 9 4 5 1015.1 - 0.0
27/01:30am 13.1 10.2 6.4 64 3.2 WNW 11 22 6 12 1015.1 - 0.0
27/01:00am 13.0 10.2 7.0 67 2.9 NW 11 15 6 8 1015.0 - 0.0
27/12:30am 12.4 8.8 6.7 68 2.7 SW 15 17 8 9 1015.1 - 0.0
27/12:00am 13.7 9.6 6.1 60 3.6 SW 17 20 9 11 1015.5 1015.5 0.0
 
Date/Time
EST
Temp
°C
App
Temp
°C
Dew
Point
Rel
Hum
%
Delta-T
°C
Wind Press
QNH
hPa
Press
MSL
hPa
Rain
since 9 am
mm
Dir
 
Spd
km/h
Gust
km/h
Spd
kts
Gust
kts
26/11:30pm 14.4 10.2 5.8 56 4.1 WSW 17 22 9 12 1015.6 - 0.0
26/11:00pm 14.0 9.5 6.0 58 3.8 SW 19 24 10 13 1016.1 - 0.0
26/10:30pm 15.6 11.2 5.0 49 5.0 SW 17 22 9 12 1016.3 - 0.0
26/10:00pm 15.9 12.3 5.1 48 5.1 WSW 13 22 7 12 1016.2 - 0.0
26/09:30pm 16.6 12.2 4.8 45 5.6 WSW 17 22 9 12 1015.9 - 0.0
26/09:00pm 16.9 11.8 4.3 43 5.9 WSW 20 30 11 16 1015.7 1015.7 0.0
26/08:30pm 17.0 9.7 4.5 43 5.9 WSW 32 35 17 19 1015.1 - 0.0
26/08:00pm 16.7 11.7 4.6 44 5.7 W 20 26 11 14 1015.3 - 0.0
26/07:30pm 16.7 11.8 4.9 45 5.6 W 20 30 11 16 1015.2 - 0.0
26/07:00pm 17.5 12.1 4.4 42 6.2 W 22 28 12 15 1014.7 - 0.0
26/06:30pm 17.7 12.9 4.4 41 6.3 W 19 26 10 14 1014.3 - 0.0
26/06:00pm 18.2 13.1 4.0 39 6.7 W 20 28 11 15 1013.6 1013.6 0.0
26/05:30pm 18.8 12.5 3.7 36 7.1 W 26 35 14 19 1013.1 - 0.0
26/05:00pm 19.8 13.5 3.8 34 7.6 W 26 37 14 20 1012.5 - 0.0
26/04:30pm 20.9 14.1 2.9 30 8.5 WSW 28 37 15 20 1012.1 - 0.0
26/04:00pm 21.4 13.6 1.7 27 9.1 WSW 32 46 17 25 1011.3 - 0.0
26/03:30pm 22.4 14.2 2.6 27 9.4 WSW 35 54 19 29 1011.0 - 0.0
26/03:00pm 22.7 14.2 1.0 24 10.0 WSW 35 56 19 30 1010.5 1010.5 0.0
26/02:35pm 23.1 12.7 2.2 25 9.9 W 46 54 25 29 1010.1 - 0.0
26/02:30pm 22.9 13.5 2.1 25 9.8 SW 41 54 22 29 1010.1 - 0.0
26/02:00pm 23.0 12.1 1.6 24 10.0 SW 48 70 26 38 1010.0 - 0.0
26/01:36pm 23.0 13.4 0.9 23 10.2 WSW 41 61 22 33 1010.0 - 0.0
26/01:30pm 22.9 12.6 0.3 22 10.3 WSW 44 59 24 32 1009.9 - 0.0
26/01:00pm 22.4 13.6 1.5 25 9.7 WSW 37 56 20 30 1010.2 - 0.0
26/12:30pm 22.5 10.8 1.0 24 9.9 W 52 70 28 38 1009.9 - 0.0
26/12:05pm 22.1 10.6 0.2 23 9.9 WSW 50 69 27 37 1009.9 - 0.0
26/12:00pm 22.2 10.0 0.4 23 9.9 W 54 69 29 37 1009.9 1009.9 0.0
26/11:30am 22.0 10.0 1.5 25 9.5 W 54 72 29 39 1010.2 - 0.0
26/11:00am 21.5 11.2 2.6 28 8.9 WSW 46 65 25 35 1011.1 - 0.0
26/10:39am 21.0 10.4 3.0 30 8.5 WSW 48 70 26 38 1011.3 - 0.0
26/10:30am 20.9 11.2 2.9 30 8.5 WSW 43 54 23 29 1011.2 - 0.0
26/10:00am 20.6 10.9 3.0 31 8.3 WSW 43 54 23 29 1011.4 - 0.0
26/09:34am 19.6 9.5 3.5 34 7.6 WSW 46 67 25 36 1011.5 - 0.0
26/09:30am 19.8 9.3 3.9 35 7.6 WSW 48 59 26 32 1011.6 - 0.0
26/09:00am 19.2 9.0 3.2 34 7.5 WSW 46 61 25 33 1011.9 1011.9 0.0
26/08:53am 19.0 9.4 3.2 35 7.4 WSW 43 61 23 33 1011.9 - -
26/08:30am 18.9 9.2 2.7 34 7.5 WSW 43 54 23 29 1011.9 - -
26/08:17am 18.8 10.2 2.8 34 7.4 W 37 56 20 30 1011.8 - 0.0
26/08:00am 18.6 9.6 2.5 34 7.4 WSW 39 52 21 28 1011.9 - 0.0
26/07:30am 18.4 11.1 2.5 34 7.3 WSW 30 41 16 22 1011.7 - -
26/07:00am 17.9 10.1 2.6 36 7.0 W 33 41 18 22 1011.4 - 0.0
26/06:30am 17.6 11.1 2.5 36 6.9 W 26 35 14 19 1010.9 - -
26/06:00am 17.7 12.8 2.0 35 7.1 W 17 24 9 13 1010.7 1010.7 -
26/05:30am 17.9 13.0 2.3 35 7.1 W 17 24 9 13 1010.5 - -
26/05:00am 18.7 14.2 2.4 33 7.5 WNW 15 20 8 11 1010.1 - -
26/04:30am 19.0 13.7 2.9 34 7.5 W 20 26 11 14 1009.8 - -
26/04:00am 19.5 13.9 3.4 34 7.6 W 22 32 12 17 1009.5 - -
26/03:30am 19.3 14.4 4.9 38 7.0 W 20 28 11 15 1009.3 - -
26/03:00am 19.2 15.0 5.6 41 6.7 WNW 17 22 9 12 1009.2 1009.2 0.0
26/02:30am 19.1 15.0 6.2 43 6.4 NW 17 26 9 14 1009.1 - -
26/02:00am 18.9 14.9 8.3 50 5.5 NW 19 20 10 11 1008.9 - -
26/01:30am 16.9 14.9 11.4 70 3.0 NW 13 15 7 8 1008.8 - -
26/01:00am 15.9 15.8 14.0 88 1.1 NNW 7 13 4 7 1008.7 - -
26/12:30am 18.0 19.5 14.7 81 1.9 CALM 0 0 0 0 1008.6 - -
26/12:00am 19.2 19.0 14.6 74 2.7 WNW 9 13 5 7 1008.9 1008.9 -
 
Date/Time
EST
Temp
°C
App
Temp
°C
Dew
Point
Rel
Hum
%
Delta-T
°C
Wind Press
QNH
hPa
Press
MSL
hPa
Rain
since 9 am
mm
Dir
 
Spd
km/h
Gust
km/h
Spd
kts
Gust
kts
25/11:30pm 19.8 19.4 15.2 75 2.7 W 11 17 6 9 1009.1 - -
25/11:00pm 20.0 20.7 16.0 78 2.4 WNW 7 9 4 5 1009.2 - -
25/10:30pm 20.3 20.4 16.5 79 2.3 NNW 11 13 6 7 1009.4 - -
25/10:00pm 21.1 19.9 17.0 77 2.5 N 19 22 10 12 1009.5 - -

Other Formats:

Comma delimited format used in spreadsheet applications
http://www.bom.gov.au/fwo/IDQ60801/IDQ60801.94578.axf

JavaScript Object Notation format (JSON) in row-major order
http://www.bom.gov.au/fwo/IDQ60801/IDQ60801.94578.json